Time;durP1;ratioP1;P1;durP2;ratioP2;P2;SDS_P1;SDS_P2;PMS_P1;PMS_P2;Temp;Humidity;BMP_temperature;BMP_pressure;BME280_temperature;BME280_humidity;BME280_pressure;Samples;Min_cycle;Max_cycle;Signal;HPM_P1;HPM_P2
2023/03/31 00:01:51;;;;;;;0.68;0.40;;;;;;;4.90;100.00;99675.13;5038072;28;20024;-69
2023/03/31 00:04:17;;;;;;;0.35;0.28;;;;;;;4.83;100.00;99675.03;5025083;28;20484;-69
2023/03/31 00:06:43;;;;;;;0.30;0.20;;;;;;;4.47;100.00;99673.25;5058796;28;20116;-69
2023/03/31 00:09:11;;;;;;;0.20;0.20;;;;;;;4.62;100.00;99662.53;5041294;28;20542;-69
2023/03/31 00:11:38;;;;;;;0.40;0.30;;;;;;;4.73;100.00;99679.88;5060743;28;20020;-69
2023/03/31 00:14:06;;;;;;;0.30;0.28;;;;;;;4.63;100.00;99677.50;5052991;28;20029;-69
2023/03/31 00:16:36;;;;;;;0.20;0.20;;;;;;;4.63;100.00;99677.50;5038211;28;20477;-69
2023/03/31 00:19:01;;;;;;;0.30;0.30;;;;;;;4.70;100.00;99673.09;5033811;28;20090;-69
2023/03/31 00:21:35;;;;;;;0.20;0.20;;;;;;;4.42;100.00;99667.63;5043283;28;20422;-69
2023/03/31 00:24:10;;;;;;;0.57;0.22;;;;;;;4.36;100.00;99671.03;5027526;28;20037;-69
2023/03/31 00:26:36;;;;;;;0.20;0.20;;;;;;;4.59;100.00;99681.56;5061140;28;20041;-69
2023/03/31 00:29:06;;;;;;;0.50;0.30;;;;;;;4.33;100.00;99676.75;5061089;28;20029;-69
2023/03/31 00:31:32;;;;;;;0.30;0.30;;;;;;;4.50;100.00;99666.69;5061390;28;20025;-69
2023/03/31 00:33:58;;;;;;;0.32;0.30;;;;;;;4.45;100.00;99661.13;5060861;28;20058;-69
2023/03/31 00:36:26;;;;;;;0.30;0.30;;;;;;;4.41;100.00;99650.03;5061177;28;20409;-69
2023/03/31 00:38:57;;;;;;;0.30;0.30;;;;;;;4.68;100.00;99648.47;5043291;28;20025;-69
2023/03/31 00:41:23;;;;;;;0.22;0.20;;;;;;;4.54;100.00;99662.66;5060646;28;20113;-69
2023/03/31 00:44:07;;;;;;;1.00;0.30;;;;;;;4.35;100.00;99656.09;5060873;28;20063;-69
2023/03/31 00:46:37;;;;;;;0.20;0.20;;;;;;;4.38;100.00;99657.56;5042501;28;20048;-69
2023/03/31 00:49:03;;;;;;;0.32;0.22;;;;;;;4.42;100.00;99656.16;5060821;28;20088;-69
2023/03/31 00:51:32;;;;;;;0.40;0.30;;;;;;;4.20;100.00;99644.63;5061522;28;20148;-69
2023/03/31 00:54:03;;;;;;;0.22;0.20;;;;;;;4.26;100.00;99665.19;5060863;28;20033;-69
2023/03/31 00:56:35;;;;;;;0.30;0.20;;;;;;;4.44;100.00;99668.28;5060809;28;20059;-69
2023/03/31 00:59:06;;;;;;;0.80;0.30;;;;;;;4.55;100.00;99653.66;5060552;28;20025;-69
2023/03/31 01:01:34;;;;;;;0.45;0.20;;;;;;;4.44;100.00;99651.50;5042656;28;20029;-68
2023/03/31 01:04:06;;;;;;;0.30;0.20;;;;;;;4.43;100.00;99653.31;5042750;28;20392;-69
2023/03/31 01:06:32;;;;;;;0.30;0.20;;;;;;;4.37;100.00;99658.56;5043059;28;20022;-69
2023/03/31 01:08:59;;;;;;;0.40;0.20;;;;;;;4.40;100.00;99660.84;5041320;28;20048;-69
2023/03/31 01:11:27;;;;;;;0.28;0.28;;;;;;;4.35;100.00;99655.28;5059863;28;20039;-69
2023/03/31 01:13:55;;;;;;;0.20;0.17;;;;;;;4.13;100.00;99639.22;5060503;28;20028;-68
2023/03/31 01:16:20;;;;;;;0.30;0.20;;;;;;;4.33;100.00;99662.59;5042045;28;20021;-69
2023/03/31 01:18:48;;;;;;;0.85;0.20;;;;;;;4.50;100.00;99652.56;5060481;28;20059;-69
2023/03/31 01:21:32;;;;;;;0.25;0.25;;;;;;;4.49;100.00;99646.41;5043233;28;20025;-69
2023/03/31 01:24:10;;;;;;;0.82;0.20;;;;;;;4.60;100.00;99634.44;5042358;28;20392;-69
2023/03/31 01:27:03;;;;;;;0.85;0.20;;;;;;;4.52;100.00;99638.03;5041894;28;20068;-69
2023/03/31 01:29:44;;;;;;;0.10;0.10;;;;;;;4.70;100.00;99646.44;5043477;28;20043;-69
2023/03/31 01:32:31;;;;;;;0.28;0.28;;;;;;;4.64;100.00;99641.06;5041788;28;20500;-68
2023/03/31 01:35:20;;;;;;;0.52;0.20;;;;;;;4.55;100.00;99642.19;5042825;28;20124;-69
2023/03/31 01:38:27;;;;;;;0.10;0.10;;;;;;;4.19;100.00;99637.66;5061319;28;20389;-69
2023/03/31 01:41:14;;;;;;;0.10;0.10;;;;;;;4.38;100.00;99638.91;5062015;28;20106;-69
2023/03/31 01:43:45;;;;;;;0.40;0.10;;;;;;;4.68;100.00;99645.81;5061649;28;20092;-69
2023/03/31 01:46:48;;;;;;;0.20;0.17;;;;;;;4.41;100.00;99638.53;5042546;28;20040;-69
2023/03/31 01:49:47;;;;;;;0.10;0.10;;;;;;;4.66;100.00;99639.81;5061336;28;20163;-69
2023/03/31 01:52:22;;;;;;;0.45;0.20;;;;;;;4.57;100.00;99643.66;5042627;28;20025;-69
2023/03/31 01:54:54;;;;;;;0.10;0.10;;;;;;;4.37;100.00;99639.91;5043205;28;20091;-69
2023/03/31 01:57:33;;;;;;;0.20;0.20;;;;;;;4.03;100.00;99628.03;5044174;28;20112;-69
2023/03/31 02:00:08;;;;;;;0.10;0.10;;;;;;;4.47;100.00;99643.94;5064390;28;20059;-69
2023/03/31 02:02:54;;;;;;;0.43;0.30;;;;;;;4.32;100.00;99627.16;5046772;28;20033;-69
2023/03/31 02:05:24;;;;;;;0.40;0.20;;;;;;;4.27;100.00;99628.72;5059079;28;20455;-69
2023/03/31 02:07:58;;;;;;;0.20;0.20;;;;;;;4.54;100.00;99633.38;5041358;28;20017;-69
2023/03/31 02:10:28;;;;;;;0.22;0.22;;;;;;;4.42;100.00;99640.19;5059587;28;20033;-69
2023/03/31 02:12:56;;;;;;;0.50;0.20;;;;;;;4.47;100.00;99627.16;5040387;28;20029;-69
2023/03/31 02:15:30;;;;;;;0.80;0.20;;;;;;;4.45;100.00;99634.47;5058933;28;20025;-68
2023/03/31 02:17:58;;;;;;;0.20;0.20;;;;;;;4.52;100.00;99650.53;5039410;28;20028;-69
2023/03/31 02:20:26;;;;;;;0.28;0.28;;;;;;;4.56;100.00;99646.47;5039941;28;20131;-69
2023/03/31 02:22:54;;;;;;;0.47;0.22;;;;;;;4.45;100.00;99642.47;5042128;28;20021;-69
2023/03/31 02:25:25;;;;;;;0.30;0.22;;;;;;;4.39;100.00;99637.91;5041257;28;20407;-69
2023/03/31 02:27:58;;;;;;;0.20;0.10;;;;;;;4.12;100.00;99605.63;5056260;28;20035;-69
2023/03/31 02:30:31;;;;;;;1.38;0.30;;;;;;;4.28;100.00;99625.09;5056566;28;20036;-69
2023/03/31 02:32:58;;;;;;;0.20;0.20;;;;;;;4.22;100.00;99622.13;5059014;28;20033;-68
2023/03/31 02:35:25;;;;;;;0.20;0.13;;;;;;;4.27;100.00;99618.09;5057326;28;20033;-68
2023/03/31 02:37:52;;;;;;;0.20;0.20;;;;;;;4.32;100.00;99621.84;5024019;28;20029;-69
2023/03/31 02:40:21;;;;;;;0.50;0.30;;;;;;;4.36;100.00;99623.13;5040777;28;20109;-69
2023/03/31 02:42:47;;;;;;;0.20;0.20;;;;;;;4.28;100.00;99617.91;5057342;28;20427;-69
2023/03/31 02:45:38;;;;;;;0.30;0.20;;;;;;;4.30;100.00;99610.53;5039164;28;20060;-69
2023/03/31 02:48:06;;;;;;;0.20;0.20;;;;;;;3.85;100.00;99593.03;5061837;28;20108;-69
2023/03/31 02:50:47;;;;;;;0.43;0.30;;;;;;;4.35;100.00;99618.81;5039627;28;20028;-68
2023/03/31 02:53:33;;;;;;;0.40;0.20;;;;;;;4.20;100.00;99602.03;5057314;28;20025;-67
2023/03/31 02:56:08;;;;;;;0.25;0.20;;;;;;;4.27;100.00;99604.78;5039349;28;20059;-69
2023/03/31 02:58:57;;;;;;;0.20;0.20;;;;;;;4.21;100.00;99609.03;5039116;28;20247;-68
2023/03/31 03:01:37;;;;;;;0.73;0.30;;;;;;;4.32;100.00;99615.69;5056596;28;20052;-69
2023/03/31 03:04:48;;;;;;;0.43;0.30;;;;;;;4.23;100.00;99605.13;5057496;28;20024;-68
2023/03/31 03:07:25;;;;;;;0.20;0.20;;;;;;;3.95;100.00;99614.84;5057789;28;20025;-69
2023/03/31 03:10:04;;;;;;;0.20;0.20;;;;;;;4.03;100.00;99593.44;5058180;28;20017;-67
2023/03/31 03:12:57;;;;;;;0.20;0.17;;;;;;;4.05;100.00;99602.06;5057200;28;20388;-68
2023/03/31 03:15:35;;;;;;;0.68;0.20;;;;;;;4.16;100.00;99588.28;5039499;28;20518;-69
2023/03/31 03:18:02;;;;;;;0.20;0.10;;;;;;;3.98;100.00;99587.88;5058888;28;20033;-69
2023/03/31 03:20:27;;;;;;;0.20;0.13;;;;;;;4.18;100.00;99596.91;5038735;28;20040;-69
2023/03/31 03:22:53;;;;;;;0.20;0.20;;;;;;;3.88;100.00;99561.53;5056312;28;20029;-68
2023/03/31 03:25:23;;;;;;;0.95;0.20;;;;;;;3.96;100.00;99572.06;5022696;28;20052;-69
2023/03/31 03:27:48;;;;;;;0.13;0.13;;;;;;;4.48;100.00;99587.00;5023347;28;20048;-67
2023/03/31 03:30:14;;;;;;;0.22;0.20;;;;;;;4.49;100.00;99579.81;5022273;28;20475;-69
2023/03/31 03:32:40;;;;;;;0.10;0.10;;;;;;;4.35;100.00;99583.38;5039144;28;20028;-69
2023/03/31 03:35:06;;;;;;;0.90;0.28;;;;;;;4.31;100.00;99564.28;5041744;28;20021;-69
2023/03/31 03:37:33;;;;;;;0.20;0.10;;;;;;;4.05;100.00;99577.28;5056153;28;20021;-69
2023/03/31 03:39:58;;;;;;;0.35;0.20;;;;;;;4.38;100.00;99583.00;5042459;28;20534;-69
2023/03/31 03:42:24;;;;;;;0.20;0.20;;;;;;;4.00;100.00;99580.50;5058055;28;20040;-69
2023/03/31 03:44:49;;;;;;;0.25;0.17;;;;;;;4.12;100.00;99588.84;5058146;28;20028;-68
2023/03/31 03:47:15;;;;;;;0.22;0.20;;;;;;;4.06;100.00;99585.09;5039366;28;20037;-69
2023/03/31 03:49:40;;;;;;;0.77;0.40;;;;;;;3.96;100.00;99589.88;5038926;28;20036;-69
2023/03/31 03:52:06;;;;;;;0.52;0.30;;;;;;;4.04;100.00;99596.91;5057603;28;20029;-69
2023/03/31 03:54:31;;;;;;;1.17;0.40;;;;;;;3.86;100.00;99579.53;5038966;28;20098;-69
2023/03/31 03:56:57;;;;;;;0.95;0.38;;;;;;;3.90;100.00;99595.94;5056971;28;20438;-68
2023/03/31 03:59:22;;;;;;;0.55;0.43;;;;;;;4.32;100.00;99605.88;5022638;28;20029;-69
2023/03/31 04:01:48;;;;;;;0.95;0.60;;;;;;;4.09;100.00;99606.00;5057237;28;20086;-69
2023/03/31 04:04:14;;;;;;;0.80;0.47;;;;;;;3.88;100.00;99590.00;5057273;28;20057;-69
2023/03/31 04:06:39;;;;;;;0.75;0.40;;;;;;;4.04;100.00;99607.56;5057152;28;20033;-69
2023/03/31 04:09:05;;;;;;;0.82;0.35;;;;;;;4.12;100.00;99607.47;5057003;28;20036;-69
2023/03/31 04:11:31;;;;;;;0.80;0.30;;;;;;;3.96;100.00;99613.81;5057144;28;20028;-69
2023/03/31 04:13:56;;;;;;;0.30;0.30;;;;;;;3.99;100.00;99610.81;5039253;28;20377;-69
2023/03/31 04:16:24;;;;;;;0.30;0.20;;;;;;;4.00;100.00;99607.13;5058415;28;20055;-69
2023/03/31 04:18:51;;;;;;;0.20;0.20;;;;;;;4.07;100.00;99596.56;5039423;28;20033;-69
2023/03/31 04:21:23;;;;;;;0.45;0.20;;;;;;;3.73;100.00;99587.34;5057784;28;20076;-68
2023/03/31 04:23:57;;;;;;;0.30;0.20;;;;;;;3.76;100.00;99576.31;5056982;28;20420;-68
2023/03/31 04:26:29;;;;;;;0.10;0.10;;;;;;;3.86;100.00;99582.19;5056313;28;20044;-69
2023/03/31 04:28:59;;;;;;;0.10;0.10;;;;;;;3.87;100.00;99585.66;5055683;28;20039;-69
2023/03/31 04:31:26;;;;;;;0.20;0.20;;;;;;;3.75;100.00;99582.66;5057705;28;20033;-69
2023/03/31 04:33:59;;;;;;;0.20;0.10;;;;;;;3.68;100.00;99561.28;5045869;28;20035;-69
2023/03/31 04:36:25;;;;;;;0.57;0.20;;;;;;;3.95;100.00;99574.94;5072471;28;20040;-69
2023/03/31 04:38:53;;;;;;;0.10;0.10;;;;;;;3.60;100.00;99584.50;5058504;28;20037;-68
2023/03/31 04:41:19;;;;;;;0.20;0.10;;;;;;;3.45;100.00;99549.94;5040585;28;20029;-68
2023/03/31 04:43:45;;;;;;;0.35;0.20;;;;;;;3.41;100.00;99519.38;5049655;28;20037;-68
2023/03/31 04:46:10;;;;;;;0.10;0.10;;;;;;;4.16;100.00;99582.13;5069118;28;20044;-68
2023/03/31 04:48:36;;;;;;;0.20;0.10;;;;;;;3.84;100.00;99581.56;5065727;28;20134;-67
2023/03/31 04:51:02;;;;;;;0.45;0.10;;;;;;;3.85;100.00;99587.69;5023065;28;20033;-68
2023/03/31 04:53:28;;;;;;;0.10;0.10;;;;;;;3.67;100.00;99545.50;5057443;28;20091;-68
2023/03/31 04:55:53;;;;;;;0.20;0.10;;;;;;;3.87;100.00;99567.84;5039788;28;20044;-68
2023/03/31 04:58:19;;;;;;;0.28;0.20;;;;;;;4.03;100.00;99580.13;5057171;28;20032;-68
2023/03/31 05:00:44;;;;;;;1.20;0.20;;;;;;;3.92;100.00;99583.28;5023730;28;20036;-68
2023/03/31 05:03:10;;;;;;;0.10;0.10;;;;;;;4.00;100.00;99578.66;5042925;28;20032;-68
2023/03/31 05:05:36;;;;;;;0.08;0.00;;;;;;;3.85;100.00;99593.84;5060386;28;20085;-68
2023/03/31 05:08:02;;;;;;;0.80;0.10;;;;;;;4.08;100.00;99593.72;5040955;28;20032;-68
2023/03/31 05:10:28;;;;;;;0.10;0.10;;;;;;;3.83;100.00;99598.50;5058919;28;20040;-67
2023/03/31 05:12:53;;;;;;;0.85;0.10;;;;;;;3.92;100.00;99588.59;5056150;28;20040;-67
2023/03/31 05:15:19;;;;;;;0.00;0.00;;;;;;;3.84;100.00;99594.00;5039093;28;20083;-67
2023/03/31 05:17:44;;;;;;;0.10;0.10;;;;;;;3.72;100.00;99589.16;5039992;28;20498;-67
2023/03/31 05:20:12;;;;;;;0.32;0.10;;;;;;;3.62;100.00;99578.00;5061450;28;20040;-67
2023/03/31 05:22:39;;;;;;;0.10;0.10;;;;;;;3.91;100.00;99584.31;5061560;28;20498;-67
2023/03/31 05:25:06;;;;;;;0.10;0.10;;;;;;;3.94;100.00;99576.78;5051369;28;20086;-66
2023/03/31 05:27:32;;;;;;;0.10;0.10;;;;;;;4.02;100.00;99580.34;5076564;28;20149;-67
2023/03/31 05:29:58;;;;;;;1.23;0.15;;;;;;;4.00;100.00;99581.31;5060152;28;20085;-67
2023/03/31 05:32:25;;;;;;;0.13;0.13;;;;;;;3.91;100.00;99585.13;5058824;28;20068;-68
2023/03/31 05:34:51;;;;;;;0.00;0.00;;;;;;;3.73;100.00;99580.16;5059139;28;20029;-67
2023/03/31 05:37:19;;;;;;;0.10;0.10;;;;;;;3.66;100.00;99589.09;5061076;28;20029;-67
2023/03/31 05:39:44;;;;;;;0.20;0.10;;;;;;;3.96;100.00;99574.72;5059046;28;20025;-67
2023/03/31 05:42:10;;;;;;;0.15;0.10;;;;;;;3.89;100.00;99594.28;5059191;28;20032;-68
2023/03/31 05:44:36;;;;;;;0.65;0.10;;;;;;;3.66;100.00;99570.47;5060460;28;20021;-67
2023/03/31 05:47:02;;;;;;;0.10;0.10;;;;;;;3.83;100.00;99584.38;5059317;28;20021;-67
2023/03/31 05:49:28;;;;;;;0.10;0.10;;;;;;;3.91;100.00;99592.28;5060161;28;20108;-68
2023/03/31 05:51:53;;;;;;;0.10;0.10;;;;;;;3.43;100.00;99567.91;5061064;28;20041;-68
2023/03/31 05:54:18;;;;;;;0.03;0.00;;;;;;;3.59;100.00;99593.50;5077228;28;20060;-68
2023/03/31 05:56:44;;;;;;;0.13;0.08;;;;;;;3.67;100.00;99596.88;5079006;28;20543;-68
2023/03/31 05:59:09;;;;;;;1.00;0.15;;;;;;;3.62;100.00;99585.97;5070429;28;20071;-68
2023/03/31 06:01:35;;;;;;;0.10;0.10;;;;;;;3.81;100.00;99597.88;5060300;28;20514;-68
2023/03/31 06:04:00;;;;;;;0.73;0.17;;;;;;;3.66;100.00;99595.22;5070095;28;20039;-68
2023/03/31 06:06:26;;;;;;;0.08;0.05;;;;;;;3.52;100.00;99612.84;5055173;28;20090;-68
2023/03/31 06:08:52;;;;;;;0.20;0.10;;;;;;;3.76;100.00;99609.06;5059026;28;20112;-68
2023/03/31 06:11:20;;;;;;;0.45;0.10;;;;;;;3.96;100.00;99592.53;5057502;28;20024;-68
2023/03/31 06:13:46;;;;;;;0.88;0.20;;;;;;;4.03;100.00;99612.06;5057127;28;20036;-68
2023/03/31 06:16:13;;;;;;;0.10;0.10;;;;;;;4.24;100.00;99598.81;5074472;28;20484;-68
2023/03/31 06:18:39;;;;;;;0.20;0.10;;;;;;;3.59;100.00;99583.66;5058914;28;20029;-69
2023/03/31 06:21:06;;;;;;;0.20;0.10;;;;;;;3.64;100.00;99620.34;5057573;28;20416;-67
2023/03/31 06:23:32;;;;;;;0.30;0.25;;;;;;;3.97;100.00;99624.31;5056386;28;20035;-67
2023/03/31 06:26:03;;;;;;;0.00;0.00;;;;;;;3.63;100.00;99622.19;5058253;28;20059;-68
2023/03/31 06:28:29;;;;;;;0.10;0.10;;;;;;;3.67;100.00;99612.00;5060129;28;20021;-67
2023/03/31 06:31:03;;;;;;;0.20;0.10;;;;;;;3.56;100.00;99604.50;5058901;28;20044;-67
2023/03/31 06:33:28;;;;;;;0.40;0.13;;;;;;;3.94;100.00;99634.47;5058441;28;20139;-67
2023/03/31 06:35:55;;;;;;;0.50;0.10;;;;;;;3.92;100.00;99636.50;5059473;28;20120;-67
2023/03/31 06:38:23;;;;;;;0.10;0.10;;;;;;;3.90;100.00;99642.00;5059288;28;20060;-66
2023/03/31 06:40:48;;;;;;;0.38;0.17;;;;;;;4.02;100.00;99642.38;5058655;28;20040;-67
2023/03/31 06:43:14;;;;;;;0.40;0.10;;;;;;;3.98;100.00;99636.59;5074799;28;20505;-67
2023/03/31 06:45:39;;;;;;;0.10;0.10;;;;;;;4.10;100.00;99612.97;5058607;28;20121;-67
2023/03/31 06:48:05;;;;;;;0.08;0.08;;;;;;;3.66;100.00;99621.81;5057959;28;20028;-68
2023/03/31 06:50:31;;;;;;;0.10;0.10;;;;;;;3.67;100.00;99628.78;5058038;28;20136;-67
2023/03/31 06:52:56;;;;;;;0.10;0.10;;;;;;;3.75;100.00;99647.34;5060093;28;20035;-66
2023/03/31 06:55:22;;;;;;;2.15;0.10;;;;;;;3.96;100.00;99645.75;5058207;28;20499;-66
2023/03/31 06:57:47;;;;;;;0.32;0.10;;;;;;;3.59;100.00;99647.50;5067537;28;20025;-66
2023/03/31 07:00:13;;;;;;;0.13;0.13;;;;;;;3.66;100.00;99655.59;5062989;28;20021;-66
2023/03/31 07:02:38;;;;;;;0.30;0.20;;;;;;;3.63;100.00;99651.44;5056840;28;20036;-66
2023/03/31 07:05:04;;;;;;;0.22;0.13;;;;;;;3.57;100.00;99646.84;5072178;28;20037;-67
2023/03/31 07:07:31;;;;;;;0.30;0.30;;;;;;;3.78;100.00;99655.97;5074144;28;20029;-67
2023/03/31 07:09:57;;;;;;;1.33;0.30;;;;;;;4.01;100.00;99656.69;5059189;28;20083;-66
2023/03/31 07:12:23;;;;;;;0.30;0.20;;;;;;;4.09;100.00;99656.59;5058806;28;20032;-66
2023/03/31 07:14:49;;;;;;;0.45;0.20;;;;;;;3.63;100.00;99638.16;5060820;28;20127;-67
2023/03/31 07:17:15;;;;;;;0.45;0.20;;;;;;;3.63;100.00;99656.78;5059344;28;20033;-67
2023/03/31 07:19:41;;;;;;;0.20;0.10;;;;;;;3.82;100.00;99659.91;5076084;28;20039;-66
2023/03/31 07:22:07;;;;;;;0.28;0.20;;;;;;;3.67;100.00;99657.22;5081504;28;20021;-67
2023/03/31 07:24:33;;;;;;;0.20;0.20;;;;;;;3.92;100.00;99666.59;5065685;28;20025;-66
2023/03/31 07:26:58;;;;;;;0.20;0.10;;;;;;;4.12;100.00;99672.19;5060026;28;20492;-67
2023/03/31 07:29:24;;;;;;;0.38;0.17;;;;;;;3.94;100.00;99663.75;5080432;28;20044;-66
2023/03/31 07:31:50;;;;;;;0.30;0.10;;;;;;;3.82;100.00;99662.56;5076219;28;20025;-66
2023/03/31 07:34:16;;;;;;;0.65;0.20;;;;;;;4.07;100.00;99671.09;5080211;28;20032;-66
2023/03/31 07:36:41;;;;;;;0.30;0.13;;;;;;;3.75;100.00;99668.63;5061472;28;20027;-66
2023/03/31 07:39:07;;;;;;;0.32;0.10;;;;;;;3.88;100.00;99659.19;5044276;28;20055;-66
2023/03/31 07:41:32;;;;;;;0.52;0.10;;;;;;;3.81;100.00;99643.13;5059970;28;20020;-67
2023/03/31 07:43:58;;;;;;;0.40;0.10;;;;;;;3.65;100.00;99678.72;5061519;28;20035;-67
2023/03/31 07:46:26;;;;;;;0.10;0.10;;;;;;;3.86;100.00;99672.66;5060299;28;20112;-67
2023/03/31 07:48:53;;;;;;;0.28;0.20;;;;;;;4.19;100.00;99688.25;5061785;28;20032;-66
2023/03/31 07:51:21;;;;;;;0.13;0.13;;;;;;;4.15;100.00;99663.84;5060944;28;20109;-66
2023/03/31 07:53:48;;;;;;;0.10;0.10;;;;;;;4.37;100.00;99655.88;5079325;28;20076;-67
2023/03/31 07:56:15;;;;;;;0.43;0.20;;;;;;;4.12;100.00;99664.22;5078147;28;20047;-66
2023/03/31 07:58:41;;;;;;;0.55;0.10;;;;;;;4.28;100.00;99689.00;5060717;28;20036;-66
2023/03/31 08:01:07;;;;;;;0.20;0.17;;;;;;;4.21;100.00;99676.41;5078847;28;20391;-67
2023/03/31 08:03:33;;;;;;;0.10;0.10;;;;;;;4.00;100.00;99674.47;5060759;28;20031;-66
2023/03/31 08:06:00;;;;;;;0.55;0.28;;;;;;;4.19;100.00;99673.09;5078701;28;20024;-66
2023/03/31 08:08:26;;;;;;;0.10;0.10;;;;;;;4.02;100.00;99687.63;5061546;28;20032;-67
2023/03/31 08:10:51;;;;;;;0.10;0.10;;;;;;;3.67;100.00;99667.88;5061271;28;20074;-66
2023/03/31 08:13:17;;;;;;;0.32;0.22;;;;;;;3.91;100.00;99675.59;5061504;28;20029;-65
2023/03/31 08:15:43;;;;;;;0.20;0.10;;;;;;;3.97;100.00;99682.00;5078390;28;20039;-66
2023/03/31 08:18:08;;;;;;;0.32;0.20;;;;;;;4.08;100.00;99678.09;5078931;28;20024;-66
2023/03/31 08:20:34;;;;;;;0.20;0.20;;;;;;;4.11;100.00;99699.00;5078456;28;20117;-66
2023/03/31 08:22:59;;;;;;;0.20;0.20;;;;;;;4.06;100.00;99691.56;5060464;28;20052;-67
2023/03/31 08:25:25;;;;;;;0.22;0.20;;;;;;;3.95;100.00;99695.50;5061163;28;20056;-67
2023/03/31 08:27:50;;;;;;;0.30;0.20;;;;;;;4.11;100.00;99691.84;5060952;28;20484;-66
2023/03/31 08:30:18;;;;;;;0.52;0.30;;;;;;;4.22;100.00;99691.38;5060699;28;20058;-66
2023/03/31 08:32:43;;;;;;;0.47;0.30;;;;;;;4.18;100.00;99695.41;5078929;28;20029;-67
2023/03/31 08:35:10;;;;;;;0.70;0.35;;;;;;;4.15;100.00;99666.50;5079016;28;20046;-67
2023/03/31 08:37:38;;;;;;;0.30;0.20;;;;;;;4.10;100.00;99702.66;5081726;28;20442;-67
2023/03/31 08:40:08;;;;;;;0.30;0.30;;;;;;;4.03;100.00;99691.09;5045408;28;20032;-68
2023/03/31 08:42:46;;;;;;;0.30;0.30;;;;;;;4.17;100.00;99688.44;5059916;28;20057;-67
2023/03/31 08:45:23;;;;;;;0.30;0.30;;;;;;;4.32;100.00;99692.91;5062165;28;20116;-66
2023/03/31 08:47:54;;;;;;;0.52;0.35;;;;;;;4.37;100.00;99701.16;5061560;28;20093;-66
2023/03/31 08:50:24;;;;;;;0.40;0.30;;;;;;;4.13;100.00;99704.97;5061985;28;20113;-67
2023/03/31 08:53:00;;;;;;;0.38;0.30;;;;;;;4.00;100.00;99694.94;5062217;28;20472;-67
2023/03/31 08:55:33;;;;;;;0.35;0.30;;;;;;;4.29;100.00;99693.28;5059846;28;20025;-67
2023/03/31 08:58:08;;;;;;;0.35;0.35;;;;;;;4.13;100.00;99703.13;5044058;28;20029;-66
2023/03/31 09:01:01;;;;;;;0.70;0.50;;;;;;;4.00;100.00;99687.78;5043555;28;20123;-66
2023/03/31 09:04:07;;;;;;;0.40;0.40;;;;;;;4.25;100.00;99690.19;5025359;28;20029;-67
2023/03/31 09:06:32;;;;;;;0.40;0.40;;;;;;;3.65;100.00;99692.00;5043846;28;20074;-67
2023/03/31 09:09:02;;;;;;;0.38;0.38;;;;;;;3.84;100.00;99697.78;5061341;28;20032;-67
2023/03/31 09:11:50;;;;;;;0.65;0.40;;;;;;;3.72;100.00;99697.44;5061641;28;20028;-67
2023/03/31 09:14:40;;;;;;;0.30;0.30;;;;;;;4.04;100.00;99698.91;5059680;28;20017;-68
2023/03/31 09:17:39;;;;;;;0.40;0.40;;;;;;;3.87;100.00;99703.56;5061030;28;20059;-67
2023/03/31 09:20:14;;;;;;;0.45;0.40;;;;;;;4.35;100.00;99714.69;5062420;28;20051;-67
2023/03/31 09:22:48;;;;;;;0.85;0.40;;;;;;;4.13;100.00;99712.94;5065546;28;20025;-67
2023/03/31 09:25:33;;;;;;;0.52;0.40;;;;;;;3.99;100.00;99706.63;5066287;28;20048;-68
2023/03/31 09:28:02;;;;;;;0.52;0.50;;;;;;;3.67;100.00;99708.59;5062149;28;20171;-69
2023/03/31 09:30:34;;;;;;;0.68;0.50;;;;;;;3.66;100.00;99683.00;5043511;28;20483;-69
2023/03/31 09:33:11;;;;;;;1.00;0.60;;;;;;;3.68;100.00;99681.00;5061669;28;20031;-68
2023/03/31 09:35:37;;;;;;;0.80;0.50;;;;;;;3.62;100.00;99657.78;5060829;28;20025;-67
2023/03/31 09:38:02;;;;;;;0.50;0.50;;;;;;;3.89;100.00;99708.72;5063809;28;20092;-66
2023/03/31 09:40:28;;;;;;;0.70;0.40;;;;;;;3.67;100.00;99705.94;5040235;28;20064;-67
2023/03/31 09:43:19;;;;;;;0.45;0.45;;;;;;;3.76;100.00;99704.03;5039969;28;20095;-65
2023/03/31 09:45:45;;;;;;;0.55;0.50;;;;;;;3.53;100.00;99696.09;5042822;28;20044;-68
2023/03/31 09:48:15;;;;;;;0.82;0.55;;;;;;;3.86;100.00;99698.44;5059036;28;20036;-68
2023/03/31 09:50:57;;;;;;;1.73;0.40;;;;;;;3.64;100.00;99700.16;5041148;28;20032;-66
2023/03/31 09:53:33;;;;;;;0.50;0.50;;;;;;;3.70;100.00;99691.44;5058928;28;20056;-66
2023/03/31 09:56:06;;;;;;;0.60;0.60;;;;;;;4.28;100.00;99720.94;5061390;28;20021;-67
2023/03/31 09:58:39;;;;;;;0.50;0.50;;;;;;;3.77;100.00;99700.34;5041895;28;20025;-67
2023/03/31 10:01:08;;;;;;;0.75;0.60;;;;;;;3.82;100.00;99721.94;5060732;28;20037;-67
2023/03/31 10:03:46;;;;;;;0.43;0.40;;;;;;;3.80;100.00;99723.94;5043099;28;20060;-68
2023/03/31 10:06:15;;;;;;;0.52;0.50;;;;;;;3.76;100.00;99731.47;5060127;28;20226;-67
2023/03/31 10:08:46;;;;;;;0.60;0.40;;;;;;;3.81;100.00;99707.00;5060205;28;20031;-67
2023/03/31 10:11:12;;;;;;;0.65;0.57;;;;;;;3.65;100.00;99725.78;5059769;28;20523;-67
2023/03/31 10:13:48;;;;;;;0.68;0.60;;;;;;;4.12;100.00;99737.94;5041531;28;20535;-67
2023/03/31 10:16:22;;;;;;;1.15;0.40;;;;;;;3.64;100.00;99743.56;5042716;28;20104;-67
2023/03/31 10:18:51;;;;;;;0.57;0.55;;;;;;;3.67;100.00;99729.88;5061208;28;20258;-67
2023/03/31 10:21:25;;;;;;;0.50;0.40;;;;;;;3.96;100.00;99729.09;5057623;28;20067;-67
2023/03/31 10:23:51;;;;;;;0.68;0.68;;;;;;;3.80;100.00;99734.59;5058721;28;20388;-68
2023/03/31 10:26:20;;;;;;;0.50;0.50;;;;;;;3.75;100.00;99735.13;5059671;28;20049;-68
2023/03/31 10:28:51;;;;;;;0.90;0.52;;;;;;;3.83;100.00;99718.25;5041377;28;20032;-67
2023/03/31 10:31:18;;;;;;;0.73;0.60;;;;;;;3.84;100.00;99721.75;5041148;28;20097;-67
2023/03/31 10:33:47;;;;;;;0.65;0.60;;;;;;;3.96;100.00;99749.56;5060074;28;20108;-67
2023/03/31 10:36:27;;;;;;;0.35;0.35;;;;;;;3.47;100.00;99740.19;5041704;28;20384;-67
2023/03/31 10:38:54;;;;;;;0.50;0.50;;;;;;;3.72;100.00;99724.03;5042423;28;20052;-68
2023/03/31 10:41:22;;;;;;;0.70;0.60;;;;;;;3.85;100.00;99731.41;5061387;28;20037;-68
2023/03/31 10:43:51;;;;;;;0.65;0.60;;;;;;;3.90;100.00;99752.94;5066340;28;20013;-68
2023/03/31 10:46:17;;;;;;;0.93;0.65;;;;;;;4.13;100.00;99753.69;5061539;28;20027;-68
2023/03/31 10:48:43;;;;;;;0.60;0.60;;;;;;;3.88;100.00;99747.00;5041584;28;20372;-68
2023/03/31 10:51:12;;;;;;;0.60;0.60;;;;;;;4.14;100.00;99765.16;5060326;28;20021;-68
2023/03/31 10:54:03;;;;;;;0.77;0.65;;;;;;;3.54;100.00;99756.25;5041245;28;20037;-67
2023/03/31 10:56:50;;;;;;;1.02;0.70;;;;;;;3.49;100.00;99758.66;5056961;28;20035;-67
2023/03/31 10:59:42;;;;;;;0.60;0.60;;;;;;;3.81;100.00;99760.22;5041192;28;20036;-67
2023/03/31 11:02:32;;;;;;;0.85;0.65;;;;;;;4.18;100.00;99780.63;5054337;28;20040;-68
2023/03/31 11:05:14;;;;;;;1.02;0.63;;;;;;;3.84;100.00;99777.63;5042399;28;20025;-69
2023/03/31 11:08:12;;;;;;;0.88;0.68;;;;;;;4.06;100.00;99775.91;5041447;28;20021;-68
2023/03/31 11:10:58;;;;;;;0.52;0.40;;;;;;;3.53;100.00;99774.06;5030616;28;20056;-68
2023/03/31 11:13:39;;;;;;;1.23;0.70;;;;;;;4.06;100.00;99779.41;5060415;28;20103;-68
2023/03/31 11:16:17;;;;;;;1.05;0.70;;;;;;;3.66;100.00;99772.63;5059665;28;20052;-68
2023/03/31 11:19:03;;;;;;;0.63;0.63;;;;;;;4.00;100.00;99799.59;5059493;28;20028;-68
2023/03/31 11:21:48;;;;;;;1.35;0.55;;;;;;;3.82;100.00;99791.13;5060289;28;20033;-68
2023/03/31 11:24:42;;;;;;;0.40;0.40;;;;;;;4.04;100.00;99800.06;5041531;28;20033;-67
2023/03/31 11:27:26;;;;;;;1.77;0.70;;;;;;;4.17;100.00;99805.59;5056571;28;20049;-68
2023/03/31 11:30:05;;;;;;;1.67;0.60;;;;;;;4.18;100.00;99793.94;5060482;28;20029;-68
2023/03/31 11:33:06;;;;;;;1.05;0.80;;;;;;;3.56;100.00;99746.28;5058856;28;20092;-68
2023/03/31 11:35:53;;;;;;;0.77;0.50;;;;;;;4.23;100.00;99804.84;5044532;28;20052;-68
2023/03/31 11:38:21;;;;;;;1.92;0.85;;;;;;;4.13;100.00;99809.59;5040811;28;20025;-68
2023/03/31 11:41:01;;;;;;;0.80;0.68;;;;;;;4.18;100.00;99817.06;5060023;28;20029;-69
2023/03/31 11:43:30;;;;;;;0.80;0.68;;;;;;;4.03;100.00;99785.09;5060360;28;20056;-68
2023/03/31 11:46:07;;;;;;;0.50;0.47;;;;;;;3.92;100.00;99818.31;5060987;28;20036;-68
2023/03/31 11:48:43;;;;;;;0.75;0.73;;;;;;;4.32;100.00;99818.91;5058416;28;20044;-68
2023/03/31 11:51:17;;;;;;;1.33;0.70;;;;;;;4.27;100.00;99823.94;5061306;28;20070;-68
2023/03/31 11:53:45;;;;;;;0.70;0.55;;;;;;;3.86;100.00;99795.06;5042192;28;20526;-69